createdAt,value
2022-08-02T00:00:36.106Z,100.00
2022-08-02T00:03:03.292Z,100.00
2022-08-02T00:05:30.506Z,100.00
2022-08-02T00:07:57.550Z,100.00
2022-08-02T00:10:26.081Z,100.00
2022-08-02T00:12:53.867Z,100.00
2022-08-02T00:15:22.777Z,100.00
2022-08-02T00:17:51.404Z,100.00
2022-08-02T00:20:18.463Z,100.00
2022-08-02T00:22:45.529Z,100.00
2022-08-02T00:25:12.661Z,100.00
2022-08-02T00:27:39.678Z,100.00
2022-08-02T00:30:07.457Z,100.00
2022-08-02T00:32:35.021Z,100.00
2022-08-02T00:35:02.143Z,100.00
2022-08-02T00:37:29.185Z,100.00
2022-08-02T00:39:59.483Z,100.00
2022-08-02T00:42:27.522Z,100.00
2022-08-02T00:44:55.253Z,100.00
2022-08-02T00:47:23.001Z,100.00
2022-08-02T00:49:50.397Z,100.00
2022-08-02T00:52:17.419Z,100.00
2022-08-02T00:54:44.492Z,100.00
2022-08-02T00:57:11.799Z,100.00
2022-08-02T00:59:38.891Z,100.00
2022-08-02T01:02:06.016Z,100.00
2022-08-02T01:04:34.339Z,100.00
2022-08-02T01:07:12.083Z,100.00
2022-08-02T01:09:42.431Z,100.00
2022-08-02T01:12:10.883Z,100.00
2022-08-02T01:14:40.592Z,100.00
2022-08-02T01:17:26.993Z,100.00
2022-08-02T01:20:04.462Z,100.00
2022-08-02T01:23:11.965Z,100.00
2022-08-02T01:25:47.869Z,100.00
2022-08-02T01:28:41.032Z,100.00
2022-08-02T01:31:30.063Z,100.00
2022-08-02T01:34:04.446Z,100.00
2022-08-02T01:36:40.277Z,100.00
2022-08-02T01:39:12.306Z,100.00
2022-08-02T01:41:59.112Z,100.00
2022-08-02T01:44:30.447Z,100.00
2022-08-02T01:47:02.034Z,100.00
2022-08-02T01:49:32.733Z,100.00
2022-08-02T01:52:21.722Z,100.00
2022-08-02T01:55:07.203Z,100.00
2022-08-02T01:57:42.095Z,100.00
2022-08-02T02:00:11.423Z,100.00
2022-08-02T02:02:42.185Z,100.00
2022-08-02T02:05:15.453Z,100.00
2022-08-02T02:07:44.527Z,100.00
2022-08-02T02:10:16.719Z,100.00
2022-08-02T02:12:46.660Z,100.00
2022-08-02T02:15:14.329Z,100.00
2022-08-02T02:18:10.566Z,100.00
2022-08-02T02:20:32.440Z,100.00
2022-08-02T02:22:59.781Z,100.00
2022-08-02T02:25:34.271Z,100.00
2022-08-02T02:28:14.121Z,100.00
2022-08-02T02:30:47.424Z,100.00
2022-08-02T02:33:18.126Z,100.00
2022-08-02T02:35:47.741Z,100.00
2022-08-02T02:38:19.614Z,100.00
2022-08-02T02:40:47.807Z,100.00
2022-08-02T02:43:17.220Z,100.00
2022-08-02T02:45:45.236Z,100.00
2022-08-02T02:48:14.606Z,100.00
2022-08-02T02:50:43.909Z,100.00
2022-08-02T02:53:13.887Z,100.00
2022-08-02T02:55:42.099Z,100.00
2022-08-02T02:58:29.815Z,100.00
2022-08-02T03:01:16.562Z,100.00
2022-08-02T03:03:44.859Z,100.00
2022-08-02T03:06:15.634Z,100.00
2022-08-02T03:08:43.377Z,100.00
2022-08-02T03:11:11.472Z,100.00
2022-08-02T03:13:39.682Z,100.00
2022-08-02T03:16:07.472Z,100.00
2022-08-02T03:18:40.713Z,100.00
2022-08-02T03:21:11.847Z,100.00
2022-08-02T03:23:42.258Z,100.00
2022-08-02T03:26:10.290Z,100.00
2022-08-02T03:28:37.503Z,100.00
2022-08-02T03:31:05.740Z,100.00
2022-08-02T03:33:34.507Z,100.00
2022-08-02T03:36:06.861Z,100.00
2022-08-02T03:38:36.356Z,100.00
2022-08-02T03:41:05.555Z,100.00
2022-08-02T03:43:34.354Z,100.00
2022-08-02T03:46:04.544Z,100.00
2022-08-02T03:48:36.256Z,100.00
2022-08-02T03:51:04.527Z,100.00
2022-08-02T03:53:32.025Z,100.00
2022-08-02T03:56:00.011Z,100.00
2022-08-02T03:58:27.410Z,100.00
2022-08-02T04:00:57.948Z,100.00
2022-08-02T04:03:28.171Z,100.00
2022-08-02T04:06:01.061Z,100.00
2022-08-02T04:08:37.986Z,100.00
2022-08-02T04:11:32.543Z,100.00
2022-08-02T04:14:01.840Z,100.00
2022-08-02T04:16:38.076Z,100.00
2022-08-02T04:19:09.106Z,100.00
2022-08-02T04:21:51.675Z,100.00
2022-08-02T04:24:32.003Z,100.00
2022-08-02T04:27:19.415Z,100.00
2022-08-02T04:29:49.829Z,100.00
2022-08-02T04:32:17.399Z,100.00
2022-08-02T04:35:11.262Z,100.00
2022-08-02T04:37:34.494Z,100.00
2022-08-02T04:40:01.686Z,100.00
2022-08-02T04:42:28.843Z,100.00
2022-08-02T04:44:58.475Z,100.00
2022-08-02T04:48:02.627Z,100.00
2022-08-02T04:50:14.642Z,100.00
2022-08-02T04:52:45.683Z,100.00
2022-08-02T04:55:13.020Z,100.00
2022-08-02T04:57:56.229Z,100.00
2022-08-02T05:00:25.440Z,100.00
2022-08-02T05:02:52.669Z,100.00
2022-08-02T05:05:20.989Z,100.00
2022-08-02T05:07:48.340Z,100.00
2022-08-02T05:10:15.411Z,100.00
2022-08-02T05:12:42.722Z,100.00
2022-08-02T05:15:12.969Z,100.00
2022-08-02T05:17:47.983Z,100.00
2022-08-02T05:20:17.708Z,100.00
2022-08-02T05:22:44.925Z,100.00
2022-08-02T05:25:12.293Z,100.00
2022-08-02T05:27:39.354Z,100.00
2022-08-02T05:30:07.594Z,100.00
2022-08-02T05:32:49.648Z,100.00
2022-08-02T05:35:25.274Z,100.00
2022-08-02T05:37:52.340Z,100.00
2022-08-02T05:40:25.884Z,100.00
2022-08-02T05:42:53.650Z,100.00
2022-08-02T05:45:23.988Z,100.00
2022-08-02T05:47:52.055Z,100.00
2022-08-02T05:50:19.837Z,100.00
2022-08-02T05:52:51.026Z,100.00
2022-08-02T05:55:26.399Z,100.00
2022-08-02T05:58:09.725Z,100.00
2022-08-02T06:00:39.778Z,100.00
2022-08-02T06:03:26.563Z,100.00
2022-08-02T06:06:05.505Z,100.00
2022-08-02T06:08:47.636Z,100.00
2022-08-02T06:11:22.003Z,100.00
2022-08-02T06:13:50.655Z,100.00
2022-08-02T06:16:32.097Z,100.00
2022-08-02T06:19:00.922Z,100.00
2022-08-02T06:22:42.028Z,100.00
2022-08-02T06:24:22.959Z,100.00
2022-08-02T06:26:57.336Z,100.00
2022-08-02T06:29:27.373Z,100.00
2022-08-02T06:31:56.103Z,100.00
2022-08-02T06:34:23.424Z,100.00
2022-08-02T06:37:15.841Z,100.00
2022-08-02T06:39:49.808Z,100.00
2022-08-02T06:42:50.915Z,100.00
2022-08-02T06:45:19.773Z,100.00
2022-08-02T06:47:46.875Z,100.00
2022-08-02T06:50:14.001Z,100.00
2022-08-02T06:52:41.286Z,100.00
2022-08-02T06:55:08.888Z,100.00
2022-08-02T06:57:36.066Z,100.00
2022-08-02T07:00:09.529Z,100.00
2022-08-02T07:02:37.119Z,100.00
2022-08-02T07:05:05.818Z,100.00
2022-08-02T07:07:33.326Z,100.00
2022-08-02T07:10:01.907Z,100.00
2022-08-02T07:12:30.952Z,100.00
2022-08-02T07:14:59.810Z,100.00
2022-08-02T07:17:27.503Z,100.00
2022-08-02T07:19:57.105Z,100.00
2022-08-02T07:22:26.935Z,100.00
2022-08-02T07:24:59.262Z,100.00
2022-08-02T07:27:28.108Z,100.00
2022-08-02T07:29:57.832Z,100.00
2022-08-02T07:32:28.112Z,100.00
2022-08-02T07:34:57.742Z,100.00
2022-08-02T07:37:51.092Z,100.00
2022-08-02T07:40:19.837Z,100.00
2022-08-02T07:42:56.464Z,100.00
2022-08-02T07:45:28.001Z,100.00
2022-08-02T07:47:57.038Z,100.00
2022-08-02T07:50:26.760Z,100.00
2022-08-02T07:52:57.715Z,100.00
2022-08-02T07:55:39.726Z,100.00
2022-08-02T07:58:12.870Z,100.00
2022-08-02T08:00:43.244Z,100.00
2022-08-02T08:03:10.592Z,100.00
2022-08-02T08:05:37.643Z,100.00
2022-08-02T08:08:08.818Z,100.00
2022-08-02T08:10:37.211Z,100.00
2022-08-02T08:13:07.189Z,100.00
2022-08-02T08:15:37.158Z,100.00
2022-08-02T08:18:05.770Z,100.00
2022-08-02T08:20:33.135Z,100.00
2022-08-02T08:23:00.352Z,100.00
2022-08-02T08:25:27.705Z,100.00
2022-08-02T08:27:57.632Z,100.00
2022-08-02T08:30:25.838Z,100.00
2022-08-02T08:32:52.968Z,100.00
2022-08-02T08:35:23.397Z,100.00
2022-08-02T08:37:50.829Z,100.00
2022-08-02T08:40:21.256Z,100.00
2022-08-02T08:42:48.448Z,100.00
2022-08-02T08:45:17.827Z,100.00
2022-08-02T08:48:06.324Z,100.00
2022-08-02T08:50:39.530Z,100.00
2022-08-02T08:53:08.676Z,100.00
2022-08-02T08:55:39.315Z,100.00
2022-08-02T08:58:06.543Z,100.00
2022-08-02T09:00:38.047Z,100.00
2022-08-02T09:03:08.461Z,100.00
2022-08-02T09:05:39.647Z,100.00
2022-08-02T09:08:07.394Z,100.00
2022-08-02T09:10:54.383Z,100.00
2022-08-02T09:13:45.299Z,100.00
2022-08-02T09:16:14.409Z,100.00
2022-08-02T09:18:47.631Z,100.00
2022-08-02T09:21:16.900Z,100.00
2022-08-02T09:23:52.715Z,100.00
2022-08-02T09:26:22.478Z,100.00
2022-08-02T09:28:52.225Z,100.00
2022-08-02T09:31:23.775Z,100.00
2022-08-02T09:33:57.353Z,100.00
2022-08-02T09:36:27.044Z,100.00
2022-08-02T09:39:06.417Z,100.00
2022-08-02T09:41:41.215Z,100.00
2022-08-02T09:44:16.853Z,100.00
2022-08-02T09:46:46.172Z,100.00
2022-08-02T09:49:18.571Z,100.00
2022-08-02T09:51:46.677Z,100.00
2022-08-02T09:54:23.727Z,100.00
2022-08-02T09:56:57.068Z,100.00
2022-08-02T09:59:26.657Z,100.00
2022-08-02T10:02:01.430Z,100.00
2022-08-02T10:04:34.509Z,100.00
2022-08-02T10:07:21.745Z,100.00
2022-08-02T10:09:52.055Z,100.00
2022-08-02T10:12:23.020Z,100.00
2022-08-02T10:14:56.128Z,100.00
2022-08-02T10:17:27.547Z,100.00
2022-08-02T10:20:02.332Z,100.00
2022-08-02T10:22:36.305Z,100.00
2022-08-02T10:25:08.975Z,100.00
2022-08-02T10:27:55.445Z,100.00
2022-08-02T10:30:27.361Z,100.00
2022-08-02T10:32:57.065Z,100.00
2022-08-02T10:35:26.894Z,100.00
2022-08-02T10:38:01.051Z,100.00
2022-08-02T10:40:56.090Z,100.00
2022-08-02T10:43:32.084Z,100.00
2022-08-02T10:46:21.982Z,100.00
2022-08-02T10:49:18.429Z,100.00
2022-08-02T10:51:52.068Z,99.17
2022-08-02T10:54:20.886Z,100.00
2022-08-02T10:56:50.744Z,100.00
2022-08-02T10:59:26.837Z,100.00
2022-08-02T11:02:02.365Z,100.00
2022-08-02T11:04:41.504Z,100.00
2022-08-02T11:07:18.442Z,96.60
2022-08-02T11:09:47.614Z,95.64
2022-08-02T11:12:17.643Z,95.76
2022-08-02T11:14:58.220Z,86.98
2022-08-02T11:17:28.790Z,84.49
2022-08-02T11:20:11.129Z,83.78
2022-08-02T11:22:42.735Z,88.60
2022-08-02T11:25:29.704Z,87.22
2022-08-02T11:28:11.053Z,86.81
2022-08-02T11:30:39.201Z,84.66
2022-08-02T11:33:06.802Z,80.83
2022-08-02T11:35:39.988Z,74.31
2022-08-02T11:38:16.177Z,68.40
2022-08-02T11:40:45.042Z,68.37
2022-08-02T11:43:23.482Z,62.75
2022-08-02T11:45:52.502Z,62.00
2022-08-02T11:48:35.759Z,61.12
2022-08-02T11:51:10.768Z,57.22
2022-08-02T11:53:45.933Z,56.33
2022-08-02T11:56:14.324Z,58.96
2022-08-02T11:59:08.871Z,58.14
2022-08-02T12:01:46.303Z,57.44
2022-08-02T12:04:22.923Z,55.50
2022-08-02T12:06:59.867Z,52.58
2022-08-02T12:09:29.618Z,51.62
2022-08-02T12:11:59.155Z,52.43
2022-08-02T12:14:28.979Z,50.18
2022-08-02T12:17:18.408Z,51.02
2022-08-02T12:19:45.700Z,49.01
2022-08-02T12:22:13.141Z,48.84
2022-08-02T12:24:44.799Z,47.37
2022-08-02T12:27:38.079Z,45.61
2022-08-02T12:30:13.627Z,44.80
2022-08-02T12:32:41.354Z,44.92
2022-08-02T12:35:26.868Z,45.36
2022-08-02T12:37:56.155Z,47.49
2022-08-02T12:40:27.339Z,47.58
2022-08-02T12:43:05.087Z,48.84
2022-08-02T12:45:48.869Z,47.95
2022-08-02T12:48:36.687Z,48.04
2022-08-02T12:51:22.610Z,46.36
2022-08-02T12:53:59.862Z,45.20
2022-08-02T12:56:29.572Z,43.65
2022-08-02T12:58:57.758Z,43.62
2022-08-02T13:01:27.671Z,44.02
2022-08-02T13:04:09.182Z,41.75
2022-08-02T13:06:43.996Z,40.51
2022-08-02T13:09:17.134Z,39.37
2022-08-02T13:11:44.976Z,39.03
2022-08-02T13:14:13.920Z,39.63
2022-08-02T13:16:42.392Z,38.33
2022-08-02T13:19:09.590Z,38.42
2022-08-02T13:21:41.553Z,37.09
2022-08-02T13:24:40.030Z,37.14
2022-08-02T13:27:09.173Z,38.74
2022-08-02T13:29:37.864Z,39.89
2022-08-02T13:32:07.998Z,40.05
2022-08-02T13:34:36.127Z,41.13
2022-08-02T13:37:04.813Z,40.62
2022-08-02T13:39:31.897Z,37.83
2022-08-02T13:41:58.960Z,39.06
2022-08-02T13:44:28.776Z,37.70
2022-08-02T13:46:57.560Z,37.27
2022-08-02T13:49:50.970Z,35.14
2022-08-02T13:52:13.143Z,34.25
2022-08-02T13:54:40.551Z,35.53
2022-08-02T13:57:07.687Z,35.59
2022-08-02T13:59:57.227Z,36.87
2022-08-02T14:02:27.902Z,37.32
2022-08-02T14:04:58.552Z,36.43
2022-08-02T14:07:28.657Z,34.60
2022-08-02T14:09:57.398Z,35.71
2022-08-02T14:12:24.508Z,35.55
2022-08-02T14:14:52.533Z,34.58
2022-08-02T14:17:21.611Z,36.06
2022-08-02T14:19:50.869Z,35.94
2022-08-02T14:22:17.956Z,37.00
2022-08-02T14:24:45.261Z,36.70
2022-08-02T14:27:12.505Z,36.19
2022-08-02T14:29:39.659Z,36.02
2022-08-02T14:32:07.124Z,35.74
2022-08-02T14:34:34.677Z,35.57
2022-08-02T14:37:01.899Z,36.42
2022-08-02T14:39:43.589Z,35.97
2022-08-02T14:42:16.448Z,37.11
2022-08-02T14:44:43.861Z,36.26
2022-08-02T14:47:11.002Z,35.83
2022-08-02T14:49:41.510Z,35.71
2022-08-02T14:52:10.418Z,36.44
2022-08-02T14:54:37.748Z,37.84
2022-08-02T14:57:08.044Z,39.71
2022-08-02T14:59:35.752Z,40.07
2022-08-02T15:02:11.844Z,40.94
2022-08-02T15:04:42.966Z,40.14
2022-08-02T15:07:11.124Z,38.67
2022-08-02T15:09:39.887Z,39.25
2022-08-02T15:12:08.712Z,41.16
2022-08-02T15:14:36.514Z,41.67
2022-08-02T15:17:04.578Z,42.43
2022-08-02T15:19:56.156Z,41.29
2022-08-02T15:22:20.086Z,40.77
2022-08-02T15:24:48.054Z,40.95
2022-08-02T15:27:15.975Z,43.17
2022-08-02T15:29:44.453Z,43.25
2022-08-02T15:32:13.204Z,42.41
2022-08-02T15:34:40.574Z,42.79
2022-08-02T15:37:07.947Z,42.26
2022-08-02T15:39:38.429Z,43.79
2022-08-02T15:42:08.343Z,44.65
2022-08-02T15:44:38.664Z,44.63
2022-08-02T15:47:06.825Z,44.36
2022-08-02T15:49:38.105Z,43.65
2022-08-02T15:52:07.903Z,43.32
2022-08-02T15:54:37.790Z,43.37
2022-08-02T15:57:06.150Z,44.79
2022-08-02T15:59:33.284Z,44.68
2022-08-02T16:02:00.618Z,45.64
2022-08-02T16:04:27.792Z,45.82
2022-08-02T16:06:56.158Z,46.63
2022-08-02T16:09:23.366Z,46.05
2022-08-02T16:11:51.072Z,44.55
2022-08-02T16:14:18.172Z,44.51
2022-08-02T16:16:45.363Z,45.15
2022-08-02T16:19:47.516Z,45.98
2022-08-02T16:21:59.402Z,45.31
2022-08-02T16:24:26.971Z,46.00
2022-08-02T16:26:54.366Z,47.97
2022-08-02T16:29:21.903Z,50.77
2022-08-02T16:31:51.487Z,51.66
2022-08-02T16:34:19.747Z,52.03
2022-08-02T16:36:46.883Z,51.52
2022-08-02T16:39:14.082Z,49.34
2022-08-02T16:41:51.370Z,47.86
2022-08-02T16:44:27.556Z,46.47
2022-08-02T16:47:00.843Z,47.94
2022-08-02T16:50:07.259Z,52.24
2022-08-02T16:52:18.978Z,53.44
2022-08-02T16:54:49.873Z,55.08
2022-08-02T16:57:21.027Z,56.56
2022-08-02T16:59:57.920Z,56.48
2022-08-02T17:02:28.003Z,56.31
2022-08-02T17:04:58.768Z,54.79
2022-08-02T17:08:15.238Z,54.64
2022-08-02T17:10:18.895Z,56.11
2022-08-02T17:12:47.051Z,56.18
2022-08-02T17:15:47.041Z,58.25
2022-08-02T17:18:06.090Z,60.19
2022-08-02T17:20:36.324Z,62.88
2022-08-02T17:23:05.692Z,65.80
2022-08-02T17:25:32.791Z,69.32
2022-08-02T17:27:59.902Z,71.69
2022-08-02T17:30:28.253Z,74.96
2022-08-02T17:32:57.843Z,76.46
2022-08-02T17:35:43.875Z,79.59
2022-08-02T17:38:18.136Z,81.51
2022-08-02T17:41:00.422Z,84.28
2022-08-02T17:43:31.790Z,85.15
2022-08-02T17:46:02.478Z,85.01
2022-08-02T17:48:55.109Z,88.26
2022-08-02T17:52:16.019Z,91.73
2022-08-02T17:54:11.825Z,95.34
2022-08-02T17:56:42.650Z,95.93
2022-08-02T17:59:20.769Z,98.16
2022-08-02T18:01:56.164Z,99.31
2022-08-02T18:04:27.601Z,100.00
2022-08-02T18:07:03.907Z,100.00
2022-08-02T18:09:32.032Z,100.00
2022-08-02T18:11:59.205Z,100.00
2022-08-02T18:14:27.728Z,100.00
2022-08-02T18:16:56.888Z,100.00
2022-08-02T18:19:42.659Z,100.00
2022-08-02T18:22:17.839Z,100.00
2022-08-02T18:24:52.639Z,100.00
2022-08-02T18:27:22.482Z,100.00
2022-08-02T18:30:00.393Z,100.00
2022-08-02T18:33:57.002Z,100.00
2022-08-02T18:35:25.885Z,100.00
2022-08-02T18:38:03.566Z,100.00
2022-08-02T18:40:31.784Z,100.00
2022-08-02T18:42:59.135Z,100.00
2022-08-02T18:45:36.888Z,100.00
2022-08-02T18:48:17.651Z,100.00
2022-08-02T18:50:44.845Z,100.00
2022-08-02T18:53:14.262Z,100.00
2022-08-02T18:56:02.895Z,100.00
2022-08-02T18:58:31.064Z,100.00
2022-08-02T19:01:00.798Z,100.00
2022-08-02T19:03:49.359Z,100.00
2022-08-02T19:06:19.705Z,100.00
2022-08-02T19:09:05.250Z,100.00
2022-08-02T19:11:38.669Z,100.00
2022-08-02T19:14:08.415Z,100.00
2022-08-02T19:16:38.396Z,100.00
2022-08-02T19:19:08.939Z,100.00
2022-08-02T19:22:17.777Z,100.00
2022-08-02T19:24:23.526Z,100.00
2022-08-02T19:26:53.689Z,100.00
2022-08-02T19:29:25.092Z,100.00
2022-08-02T19:32:42.032Z,100.00
2022-08-02T19:35:01.978Z,100.00
2022-08-02T19:37:36.970Z,100.00
2022-08-02T19:40:07.902Z,100.00
2022-08-02T19:44:21.766Z,100.00
2022-08-02T19:45:45.078Z,100.00
2022-08-02T19:48:14.874Z,100.00
2022-08-02T19:50:44.192Z,100.00
2022-08-02T19:53:17.439Z,100.00
2022-08-02T19:56:00.260Z,100.00
2022-08-02T19:58:30.412Z,100.00
2022-08-02T20:00:58.239Z,100.00
2022-08-02T20:03:52.135Z,100.00
2022-08-02T20:06:14.801Z,100.00
2022-08-02T20:08:53.438Z,100.00
2022-08-02T20:11:24.640Z,100.00
2022-08-02T20:13:53.411Z,100.00
2022-08-02T20:16:27.946Z,100.00
2022-08-02T20:18:57.405Z,100.00
2022-08-02T20:21:35.824Z,100.00
2022-08-02T20:24:09.321Z,100.00
2022-08-02T20:29:43.045Z,100.00
2022-08-02T20:32:12.710Z,100.00
2022-08-02T20:34:40.089Z,100.00
2022-08-02T20:37:59.926Z,100.00
2022-08-02T20:39:56.822Z,100.00
2022-08-02T20:42:24.722Z,100.00
2022-08-02T20:44:57.399Z,100.00
2022-08-02T20:47:39.586Z,100.00
2022-08-02T20:50:31.561Z,100.00
2022-08-02T20:53:00.591Z,100.00
2022-08-02T20:55:31.212Z,100.00
2022-08-02T20:58:18.512Z,100.00
2022-08-02T21:00:47.701Z,100.00
2022-08-02T21:03:16.191Z,100.00
2022-08-02T21:05:54.658Z,100.00
2022-08-02T21:08:24.211Z,100.00
2022-08-02T21:10:53.113Z,100.00
2022-08-02T21:13:24.367Z,100.00
2022-08-02T21:15:58.860Z,100.00
2022-08-02T21:18:38.356Z,100.00
2022-08-02T21:21:09.701Z,100.00
2022-08-02T21:23:37.652Z,100.00
2022-08-02T21:26:09.081Z,100.00
2022-08-02T21:28:43.895Z,100.00
2022-08-02T21:31:15.524Z,100.00
2022-08-02T21:33:57.724Z,100.00
2022-08-02T21:36:30.997Z,100.00
2022-08-02T21:39:09.052Z,100.00
2022-08-02T21:41:39.800Z,100.00
2022-08-02T21:44:18.576Z,100.00
2022-08-02T21:46:46.752Z,100.00
2022-08-02T21:49:18.787Z,100.00
2022-08-02T21:51:49.520Z,100.00
2022-08-02T21:57:15.631Z,100.00
2022-08-02T21:59:45.925Z,100.00
2022-08-02T22:02:15.264Z,100.00
2022-08-02T22:04:47.424Z,100.00
2022-08-02T22:07:17.565Z,100.00
2022-08-02T22:09:52.698Z,100.00
2022-08-02T22:12:20.508Z,100.00
2022-08-02T22:14:54.560Z,100.00
2022-08-02T22:17:51.686Z,100.00
2022-08-02T22:20:18.318Z,100.00
2022-08-02T22:22:50.123Z,100.00
2022-08-02T22:25:27.185Z,100.00
2022-08-02T22:28:36.586Z,100.00
2022-08-02T22:30:58.142Z,100.00
2022-08-02T22:33:59.869Z,100.00
2022-08-02T22:36:30.943Z,100.00
2022-08-02T22:38:58.967Z,100.00
2022-08-02T22:42:00.233Z,100.00
2022-08-02T22:44:15.056Z,100.00
2022-08-02T22:46:46.186Z,100.00
2022-08-02T22:49:36.838Z,100.00
2022-08-02T22:52:00.383Z,100.00
2022-08-02T22:54:27.443Z,100.00
2022-08-02T22:56:56.037Z,100.00
2022-08-02T22:59:03.801Z,100.00
2022-08-02T22:59:07.211Z,100.00
2022-08-02T22:59:35.978Z,100.00
2022-08-02T23:02:08.169Z,100.00
2022-08-02T23:04:36.733Z,100.00
2022-08-02T23:07:06.997Z,100.00
2022-08-02T23:09:36.660Z,100.00
2022-08-02T23:12:04.941Z,100.00
2022-08-02T23:14:31.993Z,100.00
2022-08-02T23:17:18.745Z,100.00
2022-08-02T23:19:51.806Z,100.00
2022-08-02T23:22:29.807Z,100.00
2022-08-02T23:25:00.734Z,100.00
2022-08-02T23:27:29.093Z,100.00
2022-08-02T23:30:00.393Z,100.00
2022-08-02T23:32:28.031Z,100.00
2022-08-02T23:34:57.882Z,100.00
2022-08-02T23:37:26.156Z,100.00
2022-08-02T23:39:53.340Z,100.00
2022-08-02T23:42:23.258Z,100.00
2022-08-02T23:44:56.517Z,100.00
2022-08-02T23:47:23.661Z,100.00
2022-08-02T23:49:51.789Z,100.00
2022-08-02T23:52:19.189Z,100.00
2022-08-02T23:54:47.107Z,100.00
2022-08-02T23:57:20.921Z,100.00
2022-08-02T23:59:51.676Z,100.00
